Time;durP1;ratioP1;P1;durP2;ratioP2;P2;SDS_P1;SDS_P2;PMS_P1;PMS_P2;Temp;Humidity;BMP_temperature;BMP_pressure;BME280_temperature;BME280_humidity;BME280_pressure;Samples;Min_cycle;Max_cycle;Signal;HPM_P1;HPM_P2
2022/11/06 00:01:14;;;;;;;4.13;2.42;;;12.20;66.60;;;;;;5030525;28;20099;-47
2022/11/06 00:03:43;;;;;;;5.97;2.40;;;12.20;66.60;;;;;;5046341;28;20604;-48
2022/11/06 00:09:05;;;;;;;2.83;1.90;;;12.10;66.60;;;;;;5041464;28;20041;-47
2022/11/06 00:11:32;;;;;;;4.75;2.10;;;12.10;66.60;;;;;;5034581;28;20037;-48
2022/11/06 00:14:02;;;;;;;3.33;2.33;;;12.10;66.60;;;;;;5040769;28;20048;-47
2022/11/06 00:16:30;;;;;;;5.15;2.05;;;12.10;66.60;;;;;;5038775;28;20041;-46
2022/11/06 00:18:59;;;;;;;6.18;2.40;;;12.10;66.70;;;;;;5044467;28;20663;-47
2022/11/06 00:21:28;;;;;;;4.82;2.65;;;12.00;66.70;;;;;;5036643;28;20398;-47
2022/11/06 00:23:57;;;;;;;3.40;2.28;;;12.10;66.70;;;;;;5012223;28;20172;-47
2022/11/06 00:26:26;;;;;;;1.65;1.48;;;12.00;66.70;;;;;;5028284;28;20045;-47
2022/11/06 00:28:57;;;;;;;3.42;1.90;;;12.00;66.80;;;;;;5044579;28;20049;-48
2022/11/06 00:31:29;;;;;;;5.45;2.38;;;12.00;66.80;;;;;;5050014;28;20091;-48
2022/11/06 00:33:58;;;;;;;2.70;1.95;;;12.00;66.70;;;;;;5045573;28;20045;-47
2022/11/06 00:36:31;;;;;;;3.10;1.92;;;12.00;66.60;;;;;;5033706;28;20052;-48
2022/11/06 00:39:01;;;;;;;3.70;1.60;;;12.00;66.70;;;;;;5039033;28;20055;-47
2022/11/06 00:41:30;;;;;;;3.88;1.90;;;12.00;66.70;;;;;;5050382;28;20417;-46
2022/11/06 00:44:08;;;;;;;4.13;2.00;;;12.00;66.70;;;;;;5045556;28;20060;-48
2022/11/06 00:46:37;;;;;;;2.35;1.67;;;12.00;66.60;;;;;;5041347;28;20041;-49
2022/11/06 00:49:04;;;;;;;4.10;1.80;;;12.00;66.70;;;;;;5041575;28;20405;-47
2022/11/06 00:51:38;;;;;;;2.97;1.70;;;12.00;66.60;;;;;;5050150;28;20076;-48
2022/11/06 00:54:14;;;;;;;3.85;1.90;;;12.00;66.40;;;;;;5031120;28;20060;-47
2022/11/06 00:56:43;;;;;;;3.13;1.67;;;12.10;66.50;;;;;;5039890;28;20041;-49
2022/11/06 00:59:12;;;;;;;5.00;1.50;;;12.00;66.30;;;;;;5041819;28;20049;-49
2022/11/06 01:01:42;;;;;;;5.60;1.85;;;12.00;66.30;;;;;;5052138;28;20055;-48
2022/11/06 01:04:16;;;;;;;3.17;1.70;;;12.10;66.30;;;;;;5035061;28;20075;-46
2022/11/06 01:06:47;;;;;;;3.40;1.88;;;12.10;66.20;;;;;;5042241;28;20444;-47
2022/11/06 01:09:19;;;;;;;3.40;1.58;;;12.00;66.20;;;;;;5013559;28;20502;-47
2022/11/06 01:11:48;;;;;;;3.55;1.40;;;12.00;66.10;;;;;;5037565;28;20049;-47
2022/11/06 01:14:39;;;;;;;4.57;2.03;;;12.00;66.10;;;;;;5044551;28;20521;-48
2022/11/06 01:17:08;;;;;;;3.75;1.40;;;12.00;66.10;;;;;;5034381;28;20099;-47
2022/11/06 01:19:36;;;;;;;4.90;1.95;;;12.00;66.80;;;;;;5030814;28;20045;-47
2022/11/06 01:22:06;;;;;;;5.63;1.38;;;12.00;66.70;;;;;;5043267;28;20051;-46
2022/11/06 01:24:34;;;;;;;1.88;1.45;;;12.00;66.10;;;;;;5045195;28;20037;-47
2022/11/06 01:27:01;;;;;;;4.32;1.45;;;12.00;66.10;;;;;;5053819;28;20036;-47
2022/11/06 01:29:47;;;;;;;4.97;1.60;;;12.00;66.10;;;;;;5033261;28;20057;-46
2022/11/06 01:32:18;;;;;;;2.15;1.58;;;12.00;66.10;;;;;;5032433;28;20090;-49
2022/11/06 01:34:47;;;;;;;3.75;1.40;;;12.00;66.10;;;;;;5042824;28;20055;-47
2022/11/06 01:37:18;;;;;;;1.65;1.13;;;12.00;66.90;;;;;;5013855;28;20129;-47
2022/11/06 01:39:49;;;;;;;3.97;1.60;;;12.00;66.30;;;;;;5025862;28;20592;-47
2022/11/06 01:42:22;;;;;;;6.00;2.00;;;12.00;66.40;;;;;;5039370;28;20555;-47
2022/11/06 01:45:25;;;;;;;2.25;1.17;;;12.00;66.60;;;;;;5049703;28;20714;-47
2022/11/06 01:47:55;;;;;;;2.05;1.17;;;12.00;66.50;;;;;;5016202;28;20065;-46
2022/11/06 01:50:24;;;;;;;5.70;1.52;;;12.10;66.50;;;;;;5033169;28;20043;-48
2022/11/06 01:52:51;;;;;;;3.20;1.30;;;12.10;66.30;;;;;;5045006;28;20033;-47
2022/11/06 01:55:23;;;;;;;3.75;1.40;;;12.10;66.30;;;;;;5045208;28;20037;-49
2022/11/06 01:57:53;;;;;;;3.30;1.38;;;12.10;66.10;;;;;;5053037;28;20041;-47
2022/11/06 02:00:22;;;;;;;7.65;2.17;;;12.10;66.10;;;;;;5041542;28;20116;-46
2022/11/06 02:02:50;;;;;;;3.03;1.33;;;12.20;66.10;;;;;;5044261;28;20131;-48
2022/11/06 02:05:17;;;;;;;4.05;1.55;;;12.10;66.10;;;;;;5045201;28;20493;-47
2022/11/06 02:07:44;;;;;;;3.72;1.30;;;12.10;66.20;;;;;;5052746;28;20049;-48
2022/11/06 02:10:14;;;;;;;7.30;1.58;;;12.10;66.30;;;;;;5029301;28;20041;-47
2022/11/06 02:13:03;;;;;;;2.47;1.48;;;12.10;66.40;;;;;;5038922;28;20041;-47
2022/11/06 02:15:47;;;;;;;5.03;1.63;;;12.10;66.40;;;;;;5041503;28;20052;-48
2022/11/06 02:18:44;;;;;;;3.33;1.48;;;12.10;66.30;;;;;;5025914;28;20059;-47
2022/11/06 02:21:38;;;;;;;5.70;1.58;;;12.10;66.30;;;;;;5044712;28;20490;-48
2022/11/06 02:24:32;;;;;;;5.15;1.70;;;12.10;66.30;;;;;;5031423;28;20049;-47
2022/11/06 02:27:11;;;;;;;2.92;1.45;;;12.10;66.40;;;;;;5030185;28;20057;-46
2022/11/06 02:29:53;;;;;;;3.65;1.30;;;12.10;66.50;;;;;;5042940;28;20044;-47
2022/11/06 02:33:04;;;;;;;4.95;2.25;;;12.20;66.70;;;;;;5037545;28;20037;-47
2022/11/06 02:35:39;;;;;;;4.75;1.40;;;12.20;67.40;;;;;;5006675;28;20064;-47
2022/11/06 02:38:13;;;;;;;4.13;1.67;;;12.20;66.80;;;;;;5036840;28;20049;-46
2022/11/06 02:40:49;;;;;;;4.45;1.55;;;12.20;66.80;;;;;;5043463;28;20037;-47
2022/11/06 02:43:25;;;;;;;3.10;1.33;;;12.20;66.80;;;;;;5047017;28;20046;-48
2022/11/06 02:46:05;;;;;;;4.82;1.08;;;12.20;66.80;;;;;;5031996;28;20498;-48
2022/11/06 02:48:39;;;;;;;3.22;1.20;;;12.20;66.80;;;;;;5041395;28;20037;-47
2022/11/06 02:51:10;;;;;;;6.75;1.60;;;12.20;66.90;;;;;;5042903;28;20095;-47
2022/11/06 02:53:43;;;;;;;3.20;1.30;;;12.20;66.80;;;;;;5051688;28;20051;-46
2022/11/06 02:56:24;;;;;;;5.75;1.70;;;12.30;66.90;;;;;;5036345;28;20064;-48
2022/11/06 02:58:59;;;;;;;3.03;1.35;;;12.30;67.00;;;;;;5041575;28;20078;-48
2022/11/06 03:01:34;;;;;;;9.15;2.20;;;12.30;67.00;;;;;;5044914;28;20075;-46
2022/11/06 03:04:05;;;;;;;3.78;1.13;;;12.30;67.80;;;;;;5038116;28;20049;-47
2022/11/06 03:06:57;;;;;;;4.15;1.92;;;12.30;67.20;;;;;;5033734;28;20043;-46
2022/11/06 03:09:31;;;;;;;1.85;1.45;;;12.40;67.20;;;;;;5030177;28;20061;-47
2022/11/06 03:12:24;;;;;;;5.13;1.52;;;12.40;67.80;;;;;;5039612;28;20042;-46
2022/11/06 03:15:26;;;;;;;6.05;1.48;;;12.40;67.10;;;;;;5043319;28;20048;-47
2022/11/06 03:18:08;;;;;;;2.50;1.30;;;12.40;67.10;;;;;;5033733;28;20041;-47
2022/11/06 03:20:56;;;;;;;4.05;0.80;;;12.40;67.10;;;;;;5028086;28;20042;-46
2022/11/06 03:23:43;;;;;;;2.30;1.33;;;12.40;67.10;;;;;;5035391;28;20470;-47
2022/11/06 03:26:17;;;;;;;2.85;1.95;;;12.30;67.10;;;;;;5051202;28;20051;-48
2022/11/06 03:28:51;;;;;;;3.28;1.67;;;12.30;67.00;;;;;;5051415;28;20052;-48
2022/11/06 03:31:20;;;;;;;;;;;12.30;67.20;;;;;;5051462;28;20080;-47
2022/11/06 03:33:53;;;;;;;4.25;1.30;;;12.30;67.20;;;;;;5036452;28;19920;-46
2022/11/06 03:36:28;;;;;;;5.15;2.00;;;12.30;67.10;;;;;;5032224;28;20040;-47
2022/11/06 03:39:08;;;;;;;4.70;1.67;;;12.30;67.50;;;;;;5030870;28;20056;-48
2022/11/06 03:41:51;;;;;;;4.68;1.90;;;12.30;67.70;;;;;;5034925;28;20417;-47
2022/11/06 03:44:26;;;;;;;4.40;1.77;;;12.40;68.00;;;;;;5036159;28;20047;-46
2022/11/06 03:47:00;;;;;;;3.80;1.40;;;12.40;67.80;;;;;;5050142;28;20258;-47
2022/11/06 03:49:37;;;;;;;5.85;1.38;;;12.40;67.80;;;;;;5050243;28;20049;-48
2022/11/06 03:52:21;;;;;;;4.45;1.30;;;12.40;67.80;;;;;;5046062;28;20040;-46
2022/11/06 03:55:04;;;;;;;3.00;2.25;;;12.50;67.90;;;;;;5044611;28;20037;-47
2022/11/06 03:57:42;;;;;;;4.63;1.70;;;12.50;67.80;;;;;;5044873;28;20063;-46
2022/11/06 04:00:13;;;;;;;2.50;1.30;;;12.50;67.70;;;;;;5043253;28;20044;-46
2022/11/06 04:02:45;;;;;;;2.13;1.27;;;12.60;67.70;;;;;;5032771;28;20458;-47
2022/11/06 04:05:15;;;;;;;;;;;12.60;67.70;;;;;;5042767;28;20497;-48
2022/11/06 04:13:56;;;;;;;6.45;1.60;;;12.70;67.70;;;;;;5050922;28;19921;-47
2022/11/06 04:16:19;;;;;;;4.57;1.80;;;12.70;67.40;;;;;;5039188;28;20125;-47
2022/11/06 04:18:46;;;;;;;5.63;1.58;;;12.70;67.30;;;;;;5030269;28;20584;-47
2022/11/06 04:21:22;;;;;;;2.45;1.10;;;12.70;67.30;;;;;;5032535;28;20041;-46
2022/11/06 04:26:34;;;;;;;8.48;1.80;;;12.80;67.30;;;;;;5036185;28;20053;-47
2022/11/06 04:26:50;;;;;;;3.22;0.98;;;12.80;67.30;;;;;;5050411;28;20040;-47
2022/11/06 04:29:47;;;;;;;4.40;1.60;;;12.80;67.30;;;;;;5046789;28;20053;-46
2022/11/06 04:32:40;;;;;;;5.10;1.95;;;12.80;67.30;;;;;;5057267;23;20056;-48
2022/11/06 04:35:25;;;;;;;2.03;1.42;;;12.80;67.20;;;;;;5041788;28;20116;-48
2022/11/06 04:38:09;;;;;;;5.63;2.03;;;12.80;67.20;;;;;;5054600;28;20045;-48
2022/11/06 04:40:57;;;;;;;1.35;1.08;;;12.80;67.10;;;;;;5034027;28;20510;-48
2022/11/06 04:43:59;;;;;;;6.13;1.30;;;12.80;67.10;;;;;;5041964;28;20042;-48
2022/11/06 04:46:31;;;;;;;5.75;1.05;;;12.80;67.10;;;;;;5046332;28;20061;-48
2022/11/06 04:49:02;;;;;;;2.90;1.33;;;12.70;66.90;;;;;;5036969;28;20466;-49
2022/11/06 04:51:36;;;;;;;7.72;2.13;;;12.70;66.90;;;;;;5036104;28;20041;-49
2022/11/06 04:54:04;;;;;;;4.32;1.38;;;12.70;67.00;;;;;;5048071;28;20037;-48
2022/11/06 04:56:34;;;;;;;3.03;1.27;;;12.70;67.00;;;;;;5032666;28;20048;-48
2022/11/06 04:59:05;;;;;;;5.10;0.95;;;12.60;67.00;;;;;;5043430;28;20098;-55
2022/11/06 05:01:34;;;;;;;2.83;1.13;;;12.60;67.00;;;;;;5045612;28;20045;-52
2022/11/06 05:04:01;;;;;;;2.22;1.50;;;12.60;67.20;;;;;;5053687;28;20049;-52
2022/11/06 05:06:29;;;;;;;3.15;1.63;;;12.50;67.10;;;;;;5036264;28;20111;-49
2022/11/06 05:09:00;;;;;;;4.93;1.40;;;12.50;67.20;;;;;;5043915;28;20045;-53
2022/11/06 05:11:28;;;;;;;2.97;1.30;;;12.40;67.30;;;;;;5047439;28;20061;-49
2022/11/06 05:13:57;;;;;;;3.53;1.40;;;12.40;67.30;;;;;;5048327;28;20034;-49
2022/11/06 05:16:26;;;;;;;3.58;1.23;;;12.40;68.10;;;;;;5032040;28;20597;-52
2022/11/06 05:18:53;;;;;;;4.28;1.83;;;12.30;67.50;;;;;;5045113;28;20047;-52
2022/11/06 05:24:08;;;;;;;4.68;1.42;;;12.30;67.70;;;;;;5031256;28;20045;-52
2022/11/06 05:26:36;;;;;;;2.55;1.40;;;12.30;67.80;;;;;;5041168;28;20048;-53
2022/11/06 05:29:05;;;;;;;2.72;1.70;;;12.20;67.80;;;;;;5045060;28;20051;-53
2022/11/06 05:31:32;;;;;;;4.70;1.45;;;12.20;67.80;;;;;;5035524;28;20072;-48
2022/11/06 05:34:00;;;;;;;3.67;1.65;;;12.20;67.90;;;;;;5028667;28;20739;-50
2022/11/06 05:36:34;;;;;;;2.15;1.00;;;12.20;68.00;;;;;;5037955;28;20044;-49
2022/11/06 05:39:01;;;;;;;5.00;1.50;;;12.10;68.00;;;;;;5043572;28;20038;-51
2022/11/06 05:41:29;;;;;;;6.63;1.80;;;12.20;68.10;;;;;;5053170;28;20381;-51
2022/11/06 05:43:56;;;;;;;2.88;1.27;;;12.10;68.20;;;;;;5034313;28;20045;-49
2022/11/06 05:46:28;;;;;;;2.03;1.42;;;12.10;68.30;;;;;;5047095;28;20036;-50
2022/11/06 05:49:17;;;;;;;3.80;1.40;;;12.10;68.40;;;;;;5013792;28;20594;-52
2022/11/06 05:51:49;;;;;;;5.85;1.60;;;12.10;68.40;;;;;;5033156;28;20064;-52
2022/11/06 05:54:24;;;;;;;2.25;1.10;;;12.00;68.40;;;;;;5022434;28;20508;-51
2022/11/06 05:56:53;;;;;;;3.40;1.08;;;12.10;68.50;;;;;;5043209;28;20555;-48
2022/11/06 05:59:20;;;;;;;2.70;1.50;;;12.00;68.50;;;;;;5044326;28;20051;-51
2022/11/06 06:01:47;;;;;;;7.22;1.80;;;12.00;68.50;;;;;;5031498;28;20045;-50
2022/11/06 06:04:23;;;;;;;2.70;1.20;;;12.00;68.50;;;;;;5036015;28;20087;-52
2022/11/06 06:06:50;;;;;;;3.88;1.42;;;12.00;68.70;;;;;;5034774;28;20045;-48
2022/11/06 06:09:17;;;;;;;4.53;1.67;;;12.00;68.60;;;;;;5034491;28;20045;-50
2022/11/06 06:11:50;;;;;;;3.47;1.40;;;11.90;68.60;;;;;;5033875;28;20063;-49
2022/11/06 06:14:23;;;;;;;;;;;12.00;68.90;;;;;;5039479;28;20052;-52
2022/11/06 06:16:54;;;;;;;2.00;1.15;;;12.00;68.90;;;;;;5040898;28;19928;-52
2022/11/06 06:19:20;;;;;;;2.33;1.08;;;12.00;68.40;;;;;;5032563;28;20099;-52
2022/11/06 06:21:49;;;;;;;2.45;1.60;;;11.90;68.50;;;;;;5029457;28;20064;-51
2022/11/06 06:24:18;;;;;;;4.18;1.27;;;11.90;68.70;;;;;;5036878;28;20037;-53
2022/11/06 06:26:47;;;;;;;2.53;1.25;;;11.90;68.80;;;;;;5044885;28;20075;-53
2022/11/06 06:29:14;;;;;;;4.22;1.63;;;11.80;68.80;;;;;;5053112;28;20082;-53
2022/11/06 06:31:40;;;;;;;4.15;1.15;;;11.80;68.90;;;;;;5034927;28;20037;-51
2022/11/06 06:34:11;;;;;;;3.25;1.30;;;11.80;69.00;;;;;;5045986;28;20567;-53
2022/11/06 06:36:42;;;;;;;7.68;1.42;;;11.80;69.10;;;;;;5048313;28;20045;-52
2022/11/06 06:39:11;;;;;;;2.95;1.30;;;11.80;69.20;;;;;;5053039;28;20037;-53
2022/11/06 06:41:38;;;;;;;4.20;1.50;;;11.80;69.20;;;;;;5030517;28;20486;-51
2022/11/06 06:44:04;;;;;;;2.50;1.05;;;11.80;69.30;;;;;;5025003;28;20046;-49
2022/11/06 06:46:31;;;;;;;1.95;1.30;;;11.80;69.30;;;;;;5037636;28;20045;-52
2022/11/06 06:48:58;;;;;;;5.00;1.48;;;11.80;69.50;;;;;;5031355;28;20453;-51
2022/11/06 06:51:24;;;;;;;3.88;1.70;;;11.80;69.40;;;;;;5032908;28;20033;-51
2022/11/06 06:53:51;;;;;;;1.83;1.00;;;11.80;69.50;;;;;;5037348;28;20048;-53
2022/11/06 06:56:18;;;;;;;3.25;1.35;;;11.80;69.50;;;;;;5039923;28;20051;-49
2022/11/06 06:58:44;;;;;;;3.53;1.30;;;11.80;69.50;;;;;;5028202;28;20101;-50
2022/11/06 07:01:11;;;;;;;4.13;1.67;;;11.80;69.50;;;;;;5043586;28;20037;-52
2022/11/06 07:03:38;;;;;;;3.30;1.45;;;11.80;69.60;;;;;;5047227;28;20486;-51
2022/11/06 07:06:06;;;;;;;4.05;1.50;;;11.90;69.70;;;;;;5038556;28;20453;-52
2022/11/06 07:08:33;;;;;;;4.07;1.45;;;11.90;69.60;;;;;;5023685;28;20064;-50
2022/11/06 07:11:06;;;;;;;2.83;1.35;;;11.90;69.60;;;;;;5035623;28;20437;-49
2022/11/06 07:13:33;;;;;;;2.67;1.33;;;12.00;69.60;;;;;;5036263;28;20047;-53
2022/11/06 07:16:07;;;;;;;3.03;1.48;;;12.00;69.50;;;;;;5032044;28;20073;-49
2022/11/06 07:18:36;;;;;;;4.50;1.83;;;12.00;69.60;;;;;;5026524;28;20038;-52
2022/11/06 07:21:10;;;;;;;6.28;1.58;;;12.10;69.50;;;;;;5046724;28;20072;-49
2022/11/06 07:23:38;;;;;;;2.88;1.40;;;12.10;69.60;;;;;;5030290;28;20055;-50
2022/11/06 07:26:05;;;;;;;2.75;1.20;;;12.20;69.50;;;;;;5042112;28;20045;-50
2022/11/06 07:28:32;;;;;;;5.07;1.55;;;12.20;69.60;;;;;;5032115;28;20044;-49
2022/11/06 07:31:00;;;;;;;1.58;1.40;;;12.30;69.60;;;;;;5042353;28;20103;-52
2022/11/06 07:33:28;;;;;;;3.33;1.42;;;12.30;69.50;;;;;;5051671;28;20405;-52
2022/11/06 07:35:54;;;;;;;1.50;1.38;;;12.40;69.50;;;;;;5035476;28;20052;-49
2022/11/06 07:38:21;;;;;;;4.72;1.55;;;12.30;69.40;;;;;;5039861;28;20493;-49
2022/11/06 07:40:48;;;;;;;2.28;1.40;;;12.40;69.30;;;;;;5047664;28;20060;-53
2022/11/06 07:43:14;;;;;;;2.25;1.17;;;12.40;69.00;;;;;;5029148;28;20041;-49
2022/11/06 07:45:41;;;;;;;3.08;1.52;;;12.40;69.00;;;;;;5036370;28;20045;-49
2022/11/06 07:48:10;;;;;;;3.00;1.35;;;12.40;68.80;;;;;;5037730;28;20049;-53
2022/11/06 07:50:37;;;;;;;4.10;1.42;;;12.40;68.60;;;;;;5042746;28;20094;-49
2022/11/06 07:53:04;;;;;;;4.40;1.45;;;12.40;68.60;;;;;;5047453;28;20079;-53
2022/11/06 07:55:30;;;;;;;3.55;1.70;;;12.40;68.60;;;;;;5029659;28;20037;-49
2022/11/06 07:57:58;;;;;;;3.22;1.27;;;12.40;68.60;;;;;;5034917;28;20045;-52
2022/11/06 08:00:25;;;;;;;5.30;1.30;;;12.40;68.60;;;;;;5044264;28;20049;-49
2022/11/06 08:02:52;;;;;;;1.85;1.13;;;12.40;68.70;;;;;;5051025;28;20037;-53
2022/11/06 08:05:19;;;;;;;4.93;1.20;;;12.40;68.80;;;;;;5034790;28;20040;-53
2022/11/06 08:07:46;;;;;;;3.47;1.98;;;12.30;68.80;;;;;;5017128;28;20569;-48
2022/11/06 08:10:13;;;;;;;2.03;1.35;;;12.30;69.00;;;;;;5035099;28;20037;-50
2022/11/06 08:12:39;;;;;;;2.17;1.50;;;12.40;69.20;;;;;;5041927;28;20052;-49
2022/11/06 08:15:06;;;;;;;3.80;1.52;;;12.40;69.30;;;;;;5049896;28;20041;-49
2022/11/06 08:17:33;;;;;;;3.05;1.42;;;12.40;69.30;;;;;;5028383;28;20045;-53
2022/11/06 08:20:00;;;;;;;3.58;1.33;;;12.50;69.40;;;;;;5037692;28;20041;-53
2022/11/06 08:22:26;;;;;;;3.00;1.60;;;12.50;69.30;;;;;;5042455;28;20056;-53
2022/11/06 08:24:53;;;;;;;5.22;1.60;;;12.60;69.30;;;;;;5030144;28;20084;-49
2022/11/06 08:27:19;;;;;;;4.28;1.65;;;12.60;69.20;;;;;;5037375;28;20037;-48
2022/11/06 08:29:46;;;;;;;2.25;1.17;;;12.70;69.20;;;;;;5033809;28;20449;-52
2022/11/06 08:32:13;;;;;;;4.88;1.58;;;12.70;69.00;;;;;;5029135;28;20048;-48
2022/11/06 08:34:41;;;;;;;4.05;1.80;;;12.80;68.90;;;;;;5035652;28;20044;-49
2022/11/06 08:37:09;;;;;;;3.50;1.50;;;12.80;68.80;;;;;;5033247;28;20521;-51
2022/11/06 08:39:36;;;;;;;5.35;1.50;;;12.90;68.60;;;;;;5028492;28;20045;-50
2022/11/06 08:42:04;;;;;;;4.43;1.45;;;12.90;68.60;;;;;;5020931;28;20061;-51
2022/11/06 08:44:30;;;;;;;2.88;1.35;;;13.00;68.60;;;;;;5036476;28;20045;-53
2022/11/06 08:46:57;;;;;;;3.25;1.33;;;13.00;68.60;;;;;;5040727;28;20124;-51
2022/11/06 08:49:26;;;;;;;3.60;1.55;;;13.10;68.60;;;;;;5046629;28;20049;-49
2022/11/06 08:51:53;;;;;;;1.67;1.10;;;13.10;68.60;;;;;;5029127;28;20454;-50
2022/11/06 08:54:20;;;;;;;3.10;1.42;;;13.20;68.50;;;;;;5039262;28;20043;-48
2022/11/06 08:56:47;;;;;;;2.05;1.05;;;13.30;68.30;;;;;;5031647;28;20041;-49
2022/11/06 08:59:14;;;;;;;4.88;1.25;;;13.40;68.20;;;;;;5029769;28;20041;-52
2022/11/06 09:01:41;;;;;;;2.70;1.10;;;13.40;67.90;;;;;;5024018;28;20056;-50
2022/11/06 09:04:08;;;;;;;2.50;0.98;;;13.50;67.70;;;;;;5041605;28;20116;-52
2022/11/06 09:06:34;;;;;;;3.95;1.25;;;13.60;67.50;;;;;;5043164;28;20059;-52
2022/11/06 09:09:01;;;;;;;3.20;1.20;;;13.60;67.20;;;;;;5050493;28;20584;-52
2022/11/06 09:11:28;;;;;;;1.98;1.00;;;13.70;67.10;;;;;;5032873;28;20042;-50
2022/11/06 09:13:54;;;;;;;2.17;1.00;;;13.80;67.00;;;;;;5038554;28;20549;-53
2022/11/06 09:16:21;;;;;;;4.38;1.02;;;13.90;66.80;;;;;;5037120;28;20401;-49
2022/11/06 09:18:48;;;;;;;1.23;0.75;;;13.90;66.60;;;;;;5028672;28;20132;-49
2022/11/06 09:21:14;;;;;;;1.98;0.98;;;14.00;66.40;;;;;;5030334;28;20052;-49
2022/11/06 09:23:42;;;;;;;3.35;1.38;;;14.00;66.30;;;;;;5040882;28;20055;-53
2022/11/06 09:26:09;;;;;;;4.05;1.08;;;14.10;66.00;;;;;;5046073;28;21387;-49
2022/11/06 09:28:36;;;;;;;3.35;1.17;;;14.20;65.90;;;;;;5029909;28;20498;-48
2022/11/06 09:31:02;;;;;;;2.22;0.82;;;14.20;65.70;;;;;;5030068;28;20129;-49
2022/11/06 09:33:29;;;;;;;4.65;1.63;;;14.30;65.60;;;;;;5043500;28;20033;-53
2022/11/06 09:35:56;;;;;;;5.00;1.25;;;14.30;65.50;;;;;;5032709;28;20502;-52
2022/11/06 09:38:22;;;;;;;1.75;1.45;;;14.40;65.30;;;;;;5031106;28;20046;-49
2022/11/06 09:41:02;;;;;;;2.58;0.80;;;14.50;65.30;;;;;;5030560;28;20401;-53
2022/11/06 09:44:10;;;;;;;1.85;1.45;;;14.50;64.50;;;;;;5040549;28;20394;-52
2022/11/06 09:46:44;;;;;;;2.33;1.30;;;14.50;64.40;;;;;;5031253;28;20055;-52
2022/11/06 09:49:16;;;;;;;1.63;0.80;;;14.60;64.40;;;;;;5031284;28;20125;-49
2022/11/06 09:52:01;;;;;;;2.95;1.10;;;14.60;64.50;;;;;;5042510;28;20048;-50
2022/11/06 09:54:37;;;;;;;3.78;1.30;;;14.60;64.10;;;;;;5025172;28;20041;-49
2022/11/06 09:57:14;;;;;;;4.82;1.40;;;14.70;64.40;;;;;;5028798;28;20041;-48
2022/11/06 09:59:41;;;;;;;2.67;1.05;;;14.70;64.10;;;;;;5043458;28;20041;-48
2022/11/06 10:02:41;;;;;;;3.42;0.80;;;14.70;64.20;;;;;;5038335;28;20479;-52
2022/11/06 10:05:30;;;;;;;1.67;0.50;;;14.80;63.70;;;;;;5030616;28;20060;-53
2022/11/06 10:08:02;;;;;;;1.42;1.20;;;14.80;63.60;;;;;;5041489;28;20055;-49
2022/11/06 10:10:40;;;;;;;1.05;0.90;;;14.80;63.80;;;;;;5044783;28;20048;-48
2022/11/06 10:13:36;;;;;;;2.88;1.13;;;14.90;64.00;;;;;;5033367;28;20064;-53
2022/11/06 10:16:27;;;;;;;5.30;1.48;;;14.80;63.20;;;;;;5036015;28;20041;-50
2022/11/06 10:19:14;;;;;;;2.28;0.93;;;14.90;63.30;;;;;;5042520;28;20401;-52
2022/11/06 10:21:53;;;;;;;1.70;1.10;;;15.00;63.30;;;;;;5029815;28;20038;-48
2022/11/06 10:24:21;;;;;;;4.13;1.05;;;15.00;63.20;;;;;;5039568;28;20033;-53
2022/11/06 10:26:59;;;;;;;2.35;0.90;;;15.00;63.60;;;;;;5041082;28;20051;-49
2022/11/06 10:30:06;;;;;;;2.42;1.00;;;15.10;63.20;;;;;;5031286;28;20068;-53
2022/11/06 10:32:54;;;;;;;3.10;1.00;;;15.10;63.20;;;;;;5039864;28;20111;-53
2022/11/06 10:35:34;;;;;;;2.58;1.10;;;15.20;63.10;;;;;;5032795;28;20029;-49
2022/11/06 10:38:10;;;;;;;3.30;1.55;;;15.20;63.20;;;;;;5043987;28;20547;-52
2022/11/06 10:40:38;;;;;;;4.70;1.10;;;15.30;62.90;;;;;;5037046;28;20045;-49
2022/11/06 10:43:08;;;;;;;3.63;1.00;;;15.30;62.80;;;;;;5031664;28;20053;-53
2022/11/06 10:45:39;;;;;;;1.70;0.90;;;15.30;62.40;;;;;;5034108;28;20071;-52
2022/11/06 10:48:30;;;;;;;1.33;1.00;;;15.40;62.80;;;;;;5041481;28;20051;-48
2022/11/06 10:51:31;;;;;;;4.38;1.15;;;15.40;62.50;;;;;;5030953;28;20049;-49
2022/11/06 10:54:21;;;;;;;3.38;1.40;;;15.50;62.60;;;;;;5025646;28;20096;-52
2022/11/06 10:57:09;;;;;;;3.10;1.25;;;15.50;62.10;;;;;;5039555;28;20072;-48
2022/11/06 10:59:36;;;;;;;6.35;1.65;;;15.60;61.80;;;;;;5039694;28;20069;-53
2022/11/06 11:02:27;;;;;;;2.25;0.93;;;15.60;62.30;;;;;;5049890;28;20051;-53
2022/11/06 11:04:54;;;;;;;4.82;1.42;;;15.70;61.50;;;;;;5031024;28;20473;-51
2022/11/06 11:07:27;;;;;;;4.35;1.20;;;15.70;62.00;;;;;;5042700;28;20102;-49
2022/11/06 11:09:55;;;;;;;2.50;1.33;;;15.70;61.70;;;;;;5051746;28;20604;-49
2022/11/06 11:12:29;;;;;;;3.17;1.27;;;15.70;61.70;;;;;;5038134;28;20072;-52
2022/11/06 11:15:13;;;;;;;2.70;0.90;;;15.80;61.20;;;;;;5045714;28;20037;-50
2022/11/06 11:17:41;;;;;;;5.20;2.72;;;15.80;60.80;;;;;;5030842;28;20410;-51
2022/11/06 11:20:32;;;;;;;2.75;1.35;;;15.90;61.20;;;;;;5030877;28;20413;-50
2022/11/06 11:23:16;;;;;;;5.03;1.40;;;15.90;60.20;;;;;;5030273;28;20056;-52
2022/11/06 11:25:56;;;;;;;2.17;1.25;;;15.90;60.40;;;;;;5042468;28;20094;-52
2022/11/06 11:28:32;;;;;;;14.93;8.40;;;16.00;60.20;;;;;;5051527;28;20076;-49
2022/11/06 11:31:06;;;;;;;10.75;5.50;;;16.00;60.40;;;;;;5032531;28;20097;-49
2022/11/06 11:33:37;;;;;;;4.60;3.72;;;16.10;60.70;;;;;;5039393;28;20150;-49
2022/11/06 11:36:06;;;;;;;3.10;2.80;;;16.30;60.70;;;;;;5042121;28;20049;-49
2022/11/06 11:38:38;;;;;;;3.83;1.73;;;16.30;60.50;;;;;;5022466;28;20032;-50
2022/11/06 11:41:08;;;;;;;2.45;1.83;;;16.40;60.20;;;;;;5038727;28;20064;-53
2022/11/06 11:43:34;;;;;;;2.33;1.10;;;16.50;60.40;;;;;;5035538;28;20506;-52
2022/11/06 11:46:04;;;;;;;3.65;1.38;;;16.60;60.10;;;;;;5028752;28;20064;-49
2022/11/06 11:48:46;;;;;;;6.68;2.05;;;16.70;59.60;;;;;;5030957;28;20517;-50
2022/11/06 11:51:34;;;;;;;3.15;2.70;;;16.70;58.20;;;;;;5030189;28;20050;-50
2022/11/06 11:54:12;;;;;;;7.22;5.20;;;16.80;58.00;;;;;;5027025;28;20037;-53
2022/11/06 11:56:56;;;;;;;3.03;2.50;;;16.80;57.30;;;;;;5028484;28;20049;-50
2022/11/06 11:59:56;;;;;;;2.15;0.98;;;16.80;57.20;;;;;;5028010;28;20096;-53
2022/11/06 12:02:33;;;;;;;1.30;1.20;;;16.90;57.50;;;;;;5033516;28;20036;-51
2022/11/06 12:05:15;;;;;;;2.38;1.40;;;16.80;57.20;;;;;;5042455;28;20567;-49
2022/11/06 12:07:55;;;;;;;1.98;1.42;;;16.90;56.60;;;;;;5021065;28;20064;-48
2022/11/06 12:10:37;;;;;;;1.70;1.42;;;16.90;56.50;;;;;;5027320;28;20056;-49
2022/11/06 12:13:21;;;;;;;;;;;16.90;56.10;;;;;;5046936;28;20111;-53
2022/11/06 12:15:57;;;;;;;3.50;1.25;;;16.90;57.70;;;;;;5029827;28;19943;-49
2022/11/06 12:18:34;;;;;;;1.42;0.82;;;16.90;56.40;;;;;;5019821;28;20041;-49
2022/11/06 12:21:30;;;;;;;1.85;0.80;;;16.90;56.30;;;;;;5034331;28;20124;-50
2022/11/06 12:24:21;;;;;;;1.80;1.00;;;16.90;56.30;;;;;;5036137;28;20067;-53
2022/11/06 12:26:54;;;;;;;5.57;0.98;;;16.90;56.30;;;;;;5034780;28;20087;-50
2022/11/06 12:29:41;;;;;;;2.08;0.88;;;16.90;56.20;;;;;;5034992;28;20037;-52
2022/11/06 12:32:31;;;;;;;1.30;1.00;;;16.80;56.20;;;;;;5031684;28;20461;-51
2022/11/06 12:35:08;;;;;;;1.98;0.77;;;16.80;56.40;;;;;;5028206;28;20038;-52
2022/11/06 12:37:49;;;;;;;10.23;8.10;;;16.80;57.20;;;;;;5027939;28;20040;-49
2022/11/06 12:40:20;;;;;;;12.80;8.18;;;16.80;56.80;;;;;;5042237;28;20045;-52
2022/11/06 12:43:09;;;;;;;23.92;17.48;;;16.80;57.20;;;;;;5044632;28;20048;-50
2022/11/06 12:45:42;;;;;;;;;;;16.90;56.90;;;;;;5045980;28;20045;-49
2022/11/06 12:48:19;;;;;;;;;;;16.90;57.70;;;;;;5030673;28;19925;-52
2022/11/06 12:51:01;;;;;;;16.58;14.05;;;17.00;58.20;;;;;;5031596;28;20381;-49
2022/11/06 12:54:11;;;;;;;27.67;19.53;;;17.00;56.10;;;;;;5029614;28;20117;-50
2022/11/06 12:57:01;;;;;;;16.17;11.50;;;17.10;56.30;;;;;;4998513;28;20050;-49
2022/11/06 12:59:42;;;;;;;9.82;6.97;;;17.20;55.90;;;;;;5041681;28;20093;-52
2022/11/06 13:02:38;;;;;;;20.65;17.42;;;17.20;55.40;;;;;;5031323;28;20575;-52
2022/11/06 13:05:36;;;;;;;8.32;7.53;;;17.30;54.80;;;;;;5024410;28;20049;-51
2022/11/06 13:08:13;;;;;;;3.40;3.10;;;17.30;54.90;;;;;;5042856;28;20041;-51
2022/11/06 13:11:02;;;;;;;3.40;1.48;;;17.30;54.60;;;;;;5039095;28;20053;-52
2022/11/06 13:13:50;;;;;;;3.53;1.98;;;17.30;53.90;;;;;;5032710;28;20064;-53
2022/11/06 13:16:37;;;;;;;5.07;2.40;;;17.30;54.20;;;;;;5039705;28;20043;-51
2022/11/06 13:19:24;;;;;;;1.52;1.45;;;17.20;52.90;;;;;;5046628;28;20111;-53
2022/11/06 13:21:50;;;;;;;1.63;0.98;;;17.10;52.60;;;;;;5040850;28;20536;-53
2022/11/06 13:24:24;;;;;;;1.42;0.90;;;17.00;53.50;;;;;;5031368;28;20041;-52
2022/11/06 13:27:22;;;;;;;2.92;1.00;;;17.00;52.70;;;;;;5041470;28;20120;-52
2022/11/06 13:29:50;;;;;;;2.72;1.17;;;16.90;51.80;;;;;;5043563;28;20378;-53
2022/11/06 13:32:20;;;;;;;3.28;1.30;;;16.90;53.00;;;;;;5038839;28;20041;-53
2022/11/06 13:34:51;;;;;;;1.80;1.30;;;16.80;53.00;;;;;;5039439;28;20045;-53
2022/11/06 13:37:40;;;;;;;2.05;1.17;;;16.80;53.00;;;;;;5044974;28;20045;-53